Hovedside
METAR-TAF:

METAR-TAF

Lufthavner :

Pskov, Russland

breddegrad: 57-47-06N, lengdegrad: 028-23-54E, høyde over havet: 47 m

Gjeldene værobservasjon

Denne rapporten ble laget for 31 minutter siden, klokken 10:00 UTC
Vind 6 kt fra Nordvest, skiftende mellom Sørvest og Nord
Temperatur 23°C
Luftfuktighet 65%
Trykk 1013 hPa
Sikt 10 km eller mer
Få skyer i en høyde av 3700 ft, Tårnskyer (cumulus).

METAR: ULOO 241000Z 32003MPS 220V010 9999 FEW037TCU 23/16 Q1013 R19/090055 NOSIG RMK QFE755

Tid: 13:31 (10:31 UTC)

Varsel

Denne rapporten ble laget for 2 timer og 39 minutter siden, klokken 07:52 UTC
Varsel gyldig fra 24. klokken 09 UTC til 24. klokken 18 UTC
Vind 6 kt fra Vest-nordvest
Sikt 10 km eller mer
Spredte skyer i en høyde av 2000 ft
Midlertidig
fra 24. klokken 09 UTC til 24. klokken 15 UTC
Vind 10 kt fra Nord-nordvest med vindkast opp mot 19 kt

TAF: ULOO 240752Z 2409/2418 29003MPS 9999 SCT020 TEMPO 2409/2415 34005G10MPS

Værobservasjoner og værvarsel for over 4000 flyplasser (METAR- og TAF-rapporter).

Tilgjengelige stasjoner er representert av de røde og gule prikkene på kartet.

Hold musepekeren over prikken for å se navnet på stasjonen.

Klikk så for å se værobservasjoner og -varsler.

For å forandre kartet kan du klikke på den grønne knappen med svart kryss for å zoome inn, på den grønne knappen med strek for å zoome ut, eller på de grønne pilene for å se tilstøtende kart.


METAR-TAF: